Time;durP1;ratioP1;P1;durP2;ratioP2;P2;SDS_P1;SDS_P2;PMS_P1;PMS_P2;Temp;Humidity;BMP_temperature;BMP_pressure;BME280_temperature;BME280_humidity;BME280_pressure;Samples;Min_cycle;Max_cycle;Signal;HPM_P1;HPM_P2
2022/06/03 00:00:53;;;;;;;4.28;2.70;;;;;;;23.39;40.81;102291.56;5000136;28;20080;-82
2022/06/03 00:03:47;;;;;;;3.97;3.10;;;;;;;23.25;41.08;102268.31;5006662;28;20046;-82
2022/06/03 00:06:21;;;;;;;4.03;2.63;;;;;;;23.38;40.88;102292.56;5004431;28;20044;-82
2022/06/03 00:09:13;;;;;;;4.80;2.90;;;;;;;23.29;40.98;102281.09;5005842;28;20769;-82
2022/06/03 00:12:10;;;;;;;3.60;2.53;;;;;;;23.27;40.85;102275.13;5000359;28;20030;-81
2022/06/03 00:14:41;;;;;;;3.85;2.50;;;;;;;23.35;41.10;102291.09;4991183;28;20597;-82
2022/06/03 00:17:26;;;;;;;4.20;2.83;;;;;;;23.17;40.88;102261.19;4997508;28;20041;-82
2022/06/03 00:20:16;;;;;;;4.13;2.60;;;;;;;23.33;40.79;102289.56;5008555;28;20041;-83
2022/06/03 00:23:07;;;;;;;3.50;2.70;;;;;;;23.33;41.12;102286.91;5002687;28;20030;-82
2022/06/03 00:26:00;;;;;;;6.32;2.80;;;;;;;23.33;41.06;102286.91;5002908;28;20116;-82
2022/06/03 00:28:48;;;;;;;3.22;2.60;;;;;;;23.32;41.14;102287.91;4991447;28;20047;-82
2022/06/03 00:31:47;;;;;;;3.83;2.95;;;;;;;23.29;41.01;102283.75;5002888;28;20512;-83
2022/06/03 00:34:43;;;;;;;3.05;2.67;;;;;;;23.25;40.98;102270.97;5000049;28;20058;-82
2022/06/03 00:37:43;;;;;;;4.18;3.00;;;;;;;23.09;41.13;102258.53;4997682;28;20069;-83
2022/06/03 00:40:23;;;;;;;3.42;2.78;;;;;;;23.29;41.16;102285.59;5000779;28;20034;-83
2022/06/03 00:43:10;;;;;;;3.70;2.80;;;;;;;23.29;41.14;102288.25;5003092;28;20486;-83
2022/06/03 00:45:55;;;;;;;4.25;2.83;;;;;;;23.28;41.00;102276.78;5003178;28;21090;-83
2022/06/03 00:48:36;;;;;;;3.08;2.55;;;;;;;23.13;41.10;102260.69;5001961;28;20092;-81
2022/06/03 00:51:02;;;;;;;3.20;2.58;;;;;;;23.26;40.92;102278.78;5002792;28;20030;-82
2022/06/03 00:53:51;;;;;;;3.17;2.67;;;;;;;23.06;40.85;102242.94;4985346;28;20034;-82
2022/06/03 00:56:52;;;;;;;4.70;2.80;;;;;;;23.25;40.95;102269.16;5001306;28;20069;-82
2022/06/03 00:59:29;;;;;;;2.95;2.30;;;;;;;23.24;40.83;102267.50;4918774;28;20547;-82
2022/06/03 01:02:04;;;;;;;3.00;2.35;;;;;;;23.24;41.24;102264.84;4985630;28;20469;-81
2022/06/03 01:04:47;;;;;;;5.18;2.60;;;;;;;23.24;40.87;102269.31;5005725;28;20042;-82
2022/06/03 01:07:15;;;;;;;3.72;2.67;;;;;;;23.22;41.04;102272.16;5001660;28;20038;-82
2022/06/03 01:10:06;;;;;;;4.18;2.90;;;;;;;23.19;41.07;102265.34;5001722;28;20029;-82
2022/06/03 01:12:49;;;;;;;3.72;2.53;;;;;;;23.24;40.98;102271.97;5002289;28;20036;-82
2022/06/03 01:15:50;;;;;;;4.25;2.40;;;;;;;23.22;40.84;102266.84;4990757;28;20081;-82
2022/06/03 01:18:49;;;;;;;3.33;2.40;;;;;;;23.11;41.08;102254.72;4989581;28;20548;-82
2022/06/03 01:21:38;;;;;;;4.10;2.42;;;;;;;23.18;41.00;102260.19;5004795;28;20364;-82
2022/06/03 01:24:42;;;;;;;3.23;2.53;;;;;;;23.19;41.21;102262.69;5001514;28;20045;-82
2022/06/03 01:27:31;;;;;;;3.42;2.53;;;;;;;23.17;41.12;102266.50;4982673;28;20050;-82
2022/06/03 01:30:08;;;;;;;4.30;2.53;;;;;;;23.17;41.25;102259.38;4989385;28;20080;-82
2022/06/03 01:32:53;;;;;;;3.10;2.60;;;;;;;23.19;41.21;102264.53;5003753;28;20025;-82
2022/06/03 01:35:32;;;;;;;3.60;2.60;;;;;;;23.06;41.00;102242.94;5000925;28;20061;-82
2022/06/03 01:38:17;;;;;;;4.00;2.50;;;;;;;23.14;41.10;102258.84;5001653;28;20374;-82
2022/06/03 01:41:01;;;;;;;3.03;2.58;;;;;;;23.15;40.81;102261.34;5003863;28;20153;-82
2022/06/03 01:43:53;;;;;;;4.70;3.03;;;;;;;23.16;40.96;102260.38;5001758;28;20090;-83
2022/06/03 01:46:33;;;;;;;4.35;2.88;;;;;;;23.12;41.02;102245.72;4988705;28;21203;-82
2022/06/03 01:48:59;;;;;;;;;;;;;;;23.12;41.20;102248.41;5000943;28;20129;-82
2022/06/03 01:51:59;;;;;;;4.22;2.70;;;;;;;23.12;41.11;102251.06;5000715;28;19975;-83
2022/06/03 01:54:50;;;;;;;3.08;2.50;;;;;;;22.98;41.02;102233.16;5000510;28;20042;-82
2022/06/03 01:57:59;;;;;;;3.55;2.60;;;;;;;23.00;41.10;102236.47;5001724;28;20040;-82
2022/06/03 02:00:30;;;;;;;3.38;2.75;;;;;;;22.95;41.00;102232.63;4990516;28;20042;-81
2022/06/03 02:03:20;;;;;;;4.28;2.50;;;;;;;23.09;40.99;102247.91;4999463;28;20041;-82
2022/06/03 02:06:04;;;;;;;;;;;;;;;23.09;41.08;102246.06;5009001;28;20065;-83
2022/06/03 02:08:58;;;;;;;3.42;2.60;;;;;;;23.09;41.18;102256.69;5002684;28;19917;-82
2022/06/03 02:11:48;;;;;;;4.13;2.60;;;;;;;23.08;41.13;102241.75;5002382;28;20045;-82
2022/06/03 02:14:53;;;;;;;4.50;2.55;;;;;;;23.06;41.17;102246.41;4999696;28;20129;-82
2022/06/03 02:17:49;;;;;;;4.65;2.83;;;;;;;23.08;41.19;102243.59;4993746;28;20066;-82
2022/06/03 02:20:51;;;;;;;2.47;2.10;;;;;;;23.05;41.05;102244.75;5001577;28;20121;-83
2022/06/03 02:23:55;;;;;;;3.28;2.55;;;;;;;23.06;41.27;102243.75;4998748;28;20085;-82
2022/06/03 02:26:49;;;;;;;4.38;2.80;;;;;;;23.05;41.12;102243.94;5000026;28;20038;-82
2022/06/03 02:32:24;;;;;;;3.20;2.50;;;;;;;22.96;41.00;102228.97;4987919;28;20041;-84
2022/06/03 02:35:09;;;;;;;3.25;2.65;;;;;;;22.92;41.29;102226.66;5002605;28;20034;-82
2022/06/03 02:37:41;;;;;;;3.30;2.40;;;;;;;23.00;40.98;102241.78;4997308;28;20433;-82
2022/06/03 02:40:39;;;;;;;3.20;2.90;;;;;;;22.94;41.36;102233.63;4984412;28;20029;-82
2022/06/03 02:43:22;;;;;;;3.22;2.60;;;;;;;23.02;40.93;102241.59;4983087;28;20532;-81
2022/06/03 02:46:13;;;;;;;2.25;2.05;;;;;;;22.99;40.97;102239.28;4968365;28;20141;-82
2022/06/03 02:49:17;;;;;;;3.08;2.63;;;;;;;22.99;40.98;102239.28;4982180;28;20145;-81
2022/06/03 02:52:39;;;;;;;3.90;2.33;;;;;;;22.98;41.17;102237.59;4981027;28;20049;-82
2022/06/03 02:55:13;;;;;;;3.13;2.58;;;;;;;22.98;41.10;102238.47;4992716;28;20050;-82
2022/06/03 02:58:18;;;;;;;3.72;2.33;;;;;;;22.98;41.18;102230.50;4976168;28;20073;-81
2022/06/03 03:01:21;;;;;;;3.28;2.70;;;;;;;22.97;41.28;102228.81;4979527;28;20034;-80
2022/06/03 03:04:08;;;;;;;4.68;2.60;;;;;;;22.96;41.32;102229.81;4983612;28;20423;-81
2022/06/03 03:06:50;;;;;;;4.10;2.65;;;;;;;22.83;41.12;102203.75;4980202;28;20447;-81
2022/06/03 03:09:19;;;;;;;3.88;2.58;;;;;;;22.85;41.34;102207.06;4998775;28;20026;-82
2022/06/03 03:12:23;;;;;;;2.92;2.33;;;;;;;22.90;41.11;102212.72;5000109;28;20034;-82
2022/06/03 03:15:26;;;;;;;4.53;2.70;;;;;;;22.95;41.30;102224.66;4986840;28;20042;-81
2022/06/03 03:18:18;;;;;;;2.80;2.50;;;;;;;22.97;41.33;102223.50;4982323;28;20139;-81
2022/06/03 03:21:08;;;;;;;2.80;2.25;;;;;;;22.95;41.20;102217.50;4982701;28;20046;-81
2022/06/03 03:23:48;;;;;;;3.58;2.55;;;;;;;22.93;41.34;102214.19;5000895;28;20635;-81
2022/06/03 03:26:26;;;;;;;3.08;2.40;;;;;;;22.95;40.96;102219.34;5001640;28;20048;-81
2022/06/03 03:29:16;;;;;;;2.55;2.33;;;;;;;22.76;41.20;102199.22;4984655;28;20045;-81
2022/06/03 03:32:02;;;;;;;3.45;2.72;;;;;;;22.81;41.15;102211.03;4976246;28;20030;-82
2022/06/03 03:34:50;;;;;;;3.05;2.58;;;;;;;22.91;41.25;102219.69;4982696;28;20038;-81
2022/06/03 03:37:42;;;;;;;3.83;2.40;;;;;;;22.72;41.21;102185.47;4999750;28;20125;-81
2022/06/03 03:40:27;;;;;;;3.33;2.40;;;;;;;22.91;41.36;102211.72;4999581;28;20041;-82
2022/06/03 03:43:12;;;;;;;2.67;2.17;;;;;;;22.92;41.39;102209.88;4964762;28;20050;-82
2022/06/03 03:45:40;;;;;;;3.55;2.47;;;;;;;22.92;41.27;102202.75;4974195;28;20939;-81
2022/06/03 03:48:31;;;;;;;3.10;2.60;;;;;;;22.91;41.43;102214.38;4993975;28;20458;-82
2022/06/03 03:51:47;;;;;;;3.55;2.47;;;;;;;22.91;41.00;102217.03;4985587;28;20026;-81
2022/06/03 03:54:37;;;;;;;2.95;2.58;;;;;;;22.92;41.13;102218.69;4997179;28;20124;-82
2022/06/03 03:57:36;;;;;;;4.80;2.30;;;;;;;22.76;40.93;102189.44;4999003;28;20040;-82
2022/06/03 04:00:33;;;;;;;3.33;2.47;;;;;;;22.92;41.09;102209.88;4983992;28;20078;-82
2022/06/03 04:03:16;;;;;;;3.05;2.30;;;;;;;22.92;41.44;102215.19;4997948;28;20049;-82
2022/06/03 04:06:10;;;;;;;3.50;2.60;;;;;;;22.91;41.36;102211.72;4982072;28;20030;-82
2022/06/03 04:08:42;;;;;;;7.07;2.90;;;;;;;22.79;41.35;102189.09;4981783;28;20661;-82
2022/06/03 04:11:36;;;;;;;3.65;2.95;;;;;;;22.89;41.02;102205.75;4997608;28;20104;-81
2022/06/03 04:14:11;;;;;;;2.90;2.55;;;;;;;22.90;41.07;102201.25;4997741;28;20034;-82
2022/06/03 04:16:43;;;;;;;3.72;2.53;;;;;;;22.90;41.37;102209.22;4984174;28;20472;-82
2022/06/03 04:19:15;;;;;;;4.43;2.53;;;;;;;22.91;41.14;102210.88;4998581;28;20054;-82
2022/06/03 04:21:55;;;;;;;3.63;2.70;;;;;;;22.90;41.32;102212.72;4984108;28;20087;-82
2022/06/03 04:24:40;;;;;;;3.75;2.55;;;;;;;22.91;41.04;102210.88;4979161;28;20066;-82
2022/06/03 04:27:34;;;;;;;3.22;2.40;;;;;;;22.90;41.33;102210.06;4981893;28;20042;-82
2022/06/03 04:30:05;;;;;;;2.83;2.40;;;;;;;22.83;41.29;102200.28;5007246;28;20587;-89
2022/06/03 04:32:39;;;;;;;2.95;2.60;;;;;;;22.90;41.15;102210.06;4981772;28;20096;-87
2022/06/03 04:35:32;;;;;;;2.75;2.38;;;;;;;22.88;41.32;102204.09;4987994;28;20049;-87
2022/06/03 04:38:15;;;;;;;3.65;2.67;;;;;;;22.74;41.33;102188.78;4990377;28;20034;-88
2022/06/03 04:41:14;;;;;;;3.85;2.50;;;;;;;22.89;41.11;102210.22;4989545;28;20030;-88
2022/06/03 04:43:42;;;;;;;3.28;2.72;;;;;;;22.79;41.47;102198.91;4991669;28;20038;-88
2022/06/03 04:46:42;;;;;;;3.47;2.30;;;;;;;22.88;41.12;102217.38;4980781;28;20094;-87
2022/06/03 04:49:23;;;;;;;3.33;2.50;;;;;;;22.69;41.36;102192.94;4989007;28;20074;-86
2022/06/03 04:52:42;;;;;;;2.97;2.50;;;;;;;22.88;41.17;102217.38;4988882;28;20125;-88
2022/06/03 04:55:44;;;;;;;2.83;2.42;;;;;;;22.89;41.43;102219.03;4984416;28;20042;-89
2022/06/03 04:58:31;;;;;;;2.60;2.30;;;;;;;22.73;41.32;102194.25;4991810;28;20162;-88
2022/06/03 05:01:32;;;;;;;3.42;2.45;;;;;;;22.88;41.09;102219.19;5003061;28;20034;-86
2022/06/03 05:04:35;;;;;;;4.05;2.75;;;;;;;22.90;41.21;102218.03;4985811;28;20125;-87
2022/06/03 05:07:39;;;;;;;4.82;2.67;;;;;;;22.89;41.38;102213.72;4985314;28;20030;-88
2022/06/03 05:10:31;;;;;;;3.83;2.38;;;;;;;22.90;41.16;102215.38;5005990;28;20038;-86
2022/06/03 05:13:12;;;;;;;3.75;2.75;;;;;;;22.91;41.16;102210.88;4993001;28;20385;-88
2022/06/03 05:15:49;;;;;;;5.57;3.40;;;;;;;22.89;41.33;102216.38;5006681;28;20060;-86
2022/06/03 05:18:24;;;;;;;3.63;2.30;;;;;;;22.89;41.33;102211.06;4977237;28;20654;-85
2022/06/03 05:20:55;;;;;;;2.85;2.53;;;;;;;22.89;41.06;102211.06;4993417;28;20038;-86
2022/06/03 05:23:51;;;;;;;2.60;2.30;;;;;;;22.89;41.28;102208.41;4997272;28;20035;-87
2022/06/03 05:26:26;;;;;;;3.25;2.63;;;;;;;22.87;41.26;102205.09;4993950;28;20052;-86
2022/06/03 05:29:03;;;;;;;3.75;2.58;;;;;;;22.75;41.13;102190.44;4991328;28;20438;-86
2022/06/03 05:31:56;;;;;;;3.78;2.70;;;;;;;22.88;41.15;102206.75;5012375;28;20034;-87
2022/06/03 05:34:46;;;;;;;4.50;2.50;;;;;;;22.82;41.30;102188.00;4991579;28;20041;-85
2022/06/03 05:37:37;;;;;;;5.18;2.85;;;;;;;22.90;41.36;102206.56;5000774;28;20503;-87
2022/06/03 05:40:12;;;;;;;4.05;2.72;;;;;;;22.89;41.21;102197.78;5007332;28;20520;-88
2022/06/03 05:42:58;;;;;;;3.10;2.50;;;;;;;22.72;41.25;102164.22;5003913;28;20044;-87
2022/06/03 05:45:33;;;;;;;2.88;2.40;;;;;;;22.89;41.27;102183.66;5011712;28;20037;-87
2022/06/03 05:48:14;;;;;;;3.13;2.40;;;;;;;22.88;41.16;102182.00;5003370;28;20044;-87
2022/06/03 05:50:57;;;;;;;3.90;2.50;;;;;;;22.87;41.42;102191.81;5013532;28;20381;-88
2022/06/03 05:53:44;;;;;;;3.25;2.65;;;;;;;22.91;41.00;102198.44;5012548;28;20038;-88
2022/06/03 05:56:48;;;;;;;2.65;2.28;;;;;;;22.88;40.98;102195.28;5008990;28;20046;-88
2022/06/03 05:59:28;;;;;;;3.13;2.30;;;;;;;22.89;41.14;102195.13;4927015;29;20497;-87
2022/06/03 06:02:29;;;;;;;3.45;2.40;;;;;;;22.89;41.25;102188.97;4992014;28;20041;-88
2022/06/03 06:04:57;;;;;;;4.30;2.95;;;;;;;22.88;41.09;102190.81;4990852;28;20049;-88
2022/06/03 06:07:53;;;;;;;2.63;2.40;;;;;;;22.90;41.09;102188.81;5012080;28;20645;-87
2022/06/03 06:10:27;;;;;;;2.65;2.38;;;;;;;22.92;41.18;102196.59;4998524;28;20053;-83
2022/06/03 06:13:37;;;;;;;3.58;2.53;;;;;;;22.68;41.01;102165.56;5002060;28;20072;-85
2022/06/03 06:16:15;;;;;;;3.88;2.60;;;;;;;22.90;41.40;102196.78;5005570;28;20052;-84
2022/06/03 06:18:52;;;;;;;3.03;2.63;;;;;;;22.87;41.26;102188.31;4991079;28;20865;-82
2022/06/03 06:21:42;;;;;;;4.03;2.65;;;;;;;22.78;41.13;102170.69;4999786;28;20061;-83
2022/06/03 06:24:11;;;;;;;3.72;2.60;;;;;;;;;;5005418;28;20045;-82
2022/06/03 06:26:56;;;;;;;4.65;2.53;;;;;;;22.92;41.14;102197.44;5003621;28;20041;-83
2022/06/03 06:29:48;;;;;;;3.63;2.30;;;;;;;22.92;41.25;102204.56;5007842;28;20726;-83
2022/06/03 06:32:16;;;;;;;3.47;2.15;;;;;;;22.93;41.31;102200.91;4995607;28;20400;-85
2022/06/03 06:35:00;;;;;;;2.60;2.40;;;;;;;22.97;41.08;102196.09;5007647;28;20040;-84
2022/06/03 06:38:04;;;;;;;3.42;2.25;;;;;;;22.92;41.00;102199.25;5005104;28;20546;-84
2022/06/03 06:40:32;;;;;;;2.92;2.40;;;;;;;22.94;41.31;102199.09;4965550;28;20133;-84
2022/06/03 06:43:27;;;;;;;3.83;2.58;;;;;;;22.95;41.05;102198.09;4948076;28;20560;-84
2022/06/03 06:45:53;;;;;;;4.05;2.58;;;;;;;22.96;41.10;102205.91;4996096;28;20503;-82
2022/06/03 06:48:46;;;;;;;2.63;2.33;;;;;;;22.98;40.91;102209.25;4998397;28;20038;-87
2022/06/03 06:51:42;;;;;;;3.05;2.22;;;;;;;22.98;41.18;102213.69;5006220;28;20373;-82
2022/06/03 06:54:24;;;;;;;2.55;2.35;;;;;;;22.85;41.32;102183.19;5009882;28;20047;-83
2022/06/03 06:57:16;;;;;;;3.13;2.42;;;;;;;22.95;41.04;102198.09;5015164;28;20474;-83
2022/06/03 06:59:49;;;;;;;3.97;2.38;;;;;;;22.95;40.97;102190.94;4996971;28;20567;-83
2022/06/03 07:02:14;;;;;;;3.30;2.40;;;;;;;23.04;41.07;102213.88;4980637;28;20532;-83
2022/06/03 07:04:49;;;;;;;3.70;2.50;;;;;;;23.05;41.05;102204.06;4988336;28;20046;-83
2022/06/03 07:07:29;;;;;;;4.28;2.67;;;;;;;23.01;41.19;102195.63;4998858;28;20037;-82
2022/06/03 07:10:04;;;;;;;2.47;2.28;;;;;;;22.98;41.08;102185.34;4995142;28;20042;-82
2022/06/03 07:12:47;;;;;;;4.00;2.63;;;;;;;22.96;40.93;102175.84;4999669;28;20041;-82
2022/06/03 07:15:40;;;;;;;3.75;2.55;;;;;;;23.09;41.11;102195.59;5003143;28;20034;-83
2022/06/03 07:21:33;;;;;;;2.97;2.42;;;;;;;23.16;41.03;102185.09;5000289;28;20666;-83
2022/06/03 07:24:08;;;;;;;2.67;2.10;;;;;;;23.16;41.25;102198.41;5007074;28;20048;-83
2022/06/03 07:26:36;;;;;;;3.15;2.42;;;;;;;23.13;41.08;102186.28;5003438;28;20103;-82
2022/06/03 07:29:13;;;;;;;6.30;2.10;;;;;;;23.20;41.08;102194.41;4999716;28;20232;-83
2022/06/03 07:31:47;;;;;;;3.97;2.30;;;;;;;23.21;41.08;102194.25;5003155;28;20043;-82
2022/06/03 07:34:25;;;;;;;2.92;2.17;;;;;;;23.21;41.25;102191.59;4970181;28;20057;-84
2022/06/03 07:37:20;;;;;;;2.55;2.35;;;;;;;23.25;41.31;102191.25;5004265;28;20112;-84
2022/06/03 07:39:47;;;;;;;3.53;2.83;;;;;;;23.27;41.09;102195.41;4999143;28;20040;-83
2022/06/03 07:42:35;;;;;;;2.72;2.20;;;;;;;23.25;41.16;102193.91;5014615;28;20053;-83
2022/06/03 07:45:12;;;;;;;2.30;2.10;;;;;;;23.28;41.22;102191.72;5011357;28;20092;-83
2022/06/03 07:47:39;;;;;;;3.83;2.47;;;;;;;23.27;41.25;102187.41;5012332;28;20084;-82
2022/06/03 07:50:10;;;;;;;3.45;2.47;;;;;;;23.25;41.25;102170.00;4997453;28;20042;-83
2022/06/03 07:52:47;;;;;;;4.50;2.30;;;;;;;23.29;41.11;102185.41;5010198;28;20781;-82
2022/06/03 07:55:23;;;;;;;2.78;2.40;;;;;;;23.31;41.07;102183.41;5002684;28;20420;-82
2022/06/03 07:57:56;;;;;;;4.03;2.33;;;;;;;23.17;41.21;102166.38;5009477;28;20760;-82
2022/06/03 08:00:23;;;;;;;2.30;2.10;;;;;;;23.29;41.14;102179.28;5007664;28;20160;-82
2022/06/03 08:03:12;;;;;;;3.35;2.45;;;;;;;23.34;41.13;102180.44;4998938;28;21647;-82
2022/06/03 08:05:38;;;;;;;2.60;2.40;;;;;;;23.24;41.27;102157.69;5003906;28;20670;-81
2022/06/03 08:10:58;;;;;;;3.15;2.15;;;;;;;23.38;41.23;102176.44;5003679;28;20041;-80
2022/06/03 08:13:42;;;;;;;4.53;2.50;;;;;;;23.39;41.05;102183.41;5001223;28;20046;-80
2022/06/03 08:16:21;;;;;;;4.45;2.40;;;;;;;23.41;41.13;102181.41;5004784;28;20073;-82
2022/06/03 08:18:47;;;;;;;2.55;2.30;;;;;;;23.25;41.38;102149.56;4976165;28;20392;-82
2022/06/03 08:21:22;;;;;;;2.58;2.20;;;;;;;23.43;41.13;102181.22;5002181;28;20105;-81
2022/06/03 08:23:48;;;;;;;3.35;2.33;;;;;;;23.40;41.22;102162.97;5004700;28;20030;-81
2022/06/03 08:26:15;;;;;;;2.67;2.25;;;;;;;23.44;41.33;102164.28;5003186;28;20038;-82
2022/06/03 08:28:48;;;;;;;2.85;2.30;;;;;;;23.43;41.23;102165.28;5009155;28;20044;-82
2022/06/03 08:31:14;;;;;;;4.03;2.17;;;;;;;23.41;41.32;102162.81;5006817;28;20144;-82
2022/06/03 08:33:46;;;;;;;2.60;2.40;;;;;;;23.44;41.45;102167.75;4991500;28;20391;-81
2022/06/03 08:36:20;;;;;;;3.53;2.50;;;;;;;23.48;41.54;102171.72;5007859;28;20054;-81
2022/06/03 08:39:08;;;;;;;3.80;2.33;;;;;;;23.49;41.20;102177.88;5001860;28;20041;-82
2022/06/03 08:41:59;;;;;;;4.57;2.45;;;;;;;23.50;41.55;102168.91;5004644;28;20038;-83
2022/06/03 08:44:43;;;;;;;9.18;2.78;;;;;;;23.50;41.56;102172.38;4971583;28;20045;-82
2022/06/03 08:47:21;;;;;;;3.45;2.42;;;;;;;23.51;41.22;102166.06;4999222;28;20057;-83
2022/06/03 08:49:56;;;;;;;4.40;2.50;;;;;;;23.50;41.46;102171.56;4975150;28;20136;-82
2022/06/03 08:52:30;;;;;;;8.77;2.30;;;;;;;23.51;41.36;102166.06;5004375;28;20037;-83
2022/06/03 08:55:01;;;;;;;4.25;2.42;;;;;;;23.50;41.49;102160.94;4981581;28;20110;-83
2022/06/03 08:57:44;;;;;;;3.83;2.40;;;;;;;23.49;41.23;102161.94;5000219;28;20045;-83
2022/06/03 09:00:16;;;;;;;3.40;2.13;;;;;;;23.55;41.23;102171.06;4999410;28;20591;-84
2022/06/03 09:02:57;;;;;;;2.88;2.33;;;;;;;23.51;41.32;102165.25;4973152;28;20061;-84
2022/06/03 09:05:32;;;;;;;3.17;2.58;;;;;;;23.41;41.36;102136.22;4982512;28;20032;-87
2022/06/03 09:08:04;;;;;;;4.70;2.83;;;;;;;23.34;41.34;102123.75;5007963;28;20040;-86
2022/06/03 09:10:42;;;;;;;3.38;2.20;;;;;;;23.57;41.31;102161.94;4988291;28;20095;-84
2022/06/03 09:13:25;;;;;;;3.72;2.40;;;;;;;23.31;41.56;102118.81;5004332;28;20038;-84
2022/06/03 09:15:52;;;;;;;2.85;2.35;;;;;;;23.57;41.70;102156.63;5002974;28;20049;-84
2022/06/03 09:18:27;;;;;;;3.80;2.78;;;;;;;23.51;41.76;102157.25;5006957;28;20469;-84
2022/06/03 09:21:01;;;;;;;3.53;2.65;;;;;;;23.56;42.01;102154.94;4994072;28;20030;-85
2022/06/03 09:23:28;;;;;;;4.32;2.60;;;;;;;23.59;41.80;102159.94;5000732;28;20049;-85
2022/06/03 09:25:57;;;;;;;4.30;2.53;;;;;;;23.39;41.77;102126.75;5006017;28;20045;-85
2022/06/03 09:28:27;;;;;;;3.78;2.50;;;;;;;23.59;41.71;102159.94;5004342;28;20033;-84
2022/06/03 09:30:54;;;;;;;3.38;2.78;;;;;;;23.52;41.89;102146.50;5010633;28;20037;-84
2022/06/03 09:33:22;;;;;;;6.38;2.95;;;;;;;23.61;41.92;102157.09;5012547;28;20033;-84
2022/06/03 09:35:51;;;;;;;3.97;2.50;;;;;;;23.59;41.75;102146.66;4976496;28;20042;-84
2022/06/03 09:38:21;;;;;;;5.25;2.60;;;;;;;23.61;42.11;102149.97;5005990;28;20034;-84
2022/06/03 09:40:50;;;;;;;3.88;2.42;;;;;;;23.50;41.75;102121.03;5010979;28;20068;-85
2022/06/03 09:43:25;;;;;;;3.55;2.38;;;;;;;23.61;42.00;102133.16;5008427;28;20482;-84
2022/06/03 09:45:54;;;;;;;3.25;2.42;;;;;;;23.52;42.04;102130.53;4989784;28;20042;-84
2022/06/03 09:48:25;;;;;;;3.22;2.53;;;;;;;23.55;42.17;102128.53;5004611;28;20038;-84
2022/06/03 09:50:52;;;;;;;3.15;2.35;;;;;;;23.61;42.00;102135.84;4981834;28;20116;-84
2022/06/03 09:53:22;;;;;;;3.78;2.72;;;;;;;23.54;41.98;102119.72;5004152;28;20365;-83
2022/06/03 09:55:51;;;;;;;4.00;2.47;;;;;;;23.60;42.01;102128.84;4989768;28;20040;-84
2022/06/03 09:58:21;;;;;;;;;;;;;;;23.62;42.01;102134.81;5008130;28;20151;-84
2022/06/03 10:00:54;;;;;;;6.05;2.65;;;;;;;23.62;41.94;102129.50;5006243;28;19917;-84
2022/06/03 10:03:21;;;;;;;4.20;3.10;;;;;;;23.62;42.08;102127.69;5006846;28;20033;-83
2022/06/03 10:05:49;;;;;;;6.80;2.67;;;;;;;23.64;42.12;102130.16;4996537;28;20048;-84
2022/06/03 10:08:19;;;;;;;3.20;2.87;;;;;;;23.55;42.00;102120.56;5009067;28;20034;-85
2022/06/03 10:13:31;;;;;;;4.65;2.90;;;;;;;23.64;42.20;102132.81;4993022;28;20072;-85
2022/06/03 10:16:00;;;;;;;4.13;3.08;;;;;;;23.62;42.14;102134.81;4983928;28;20034;-85
2022/06/03 10:18:46;;;;;;;3.97;2.50;;;;;;;23.63;42.04;102129.34;5007692;28;20582;-84
2022/06/03 10:21:12;;;;;;;4.38;2.58;;;;;;;23.65;41.90;102139.78;4997562;28;20029;-85
2022/06/03 10:23:47;;;;;;;4.85;2.90;;;;;;;23.61;42.04;102136.66;5012100;28;20037;-86
2022/06/03 10:26:35;;;;;;;4.93;2.90;;;;;;;23.63;42.20;102133.81;5007038;28;20681;-85
2022/06/03 10:29:14;;;;;;;4.88;2.88;;;;;;;23.55;42.30;102123.22;5009328;28;20034;-86
2022/06/03 10:31:40;;;;;;;6.60;3.10;;;;;;;23.38;42.19;102087.88;5006186;28;20100;-85
2022/06/03 10:34:11;;;;;;;4.22;2.65;;;;;;;23.60;42.20;102111.06;5004429;28;20076;-85
2022/06/03 10:36:41;;;;;;;3.70;2.78;;;;;;;23.63;41.90;102120.53;4993972;28;20053;-84
2022/06/03 10:39:09;;;;;;;4.07;3.15;;;;;;;23.63;42.17;102124.00;5011401;28;20121;-85
2022/06/03 10:41:40;;;;;;;2.88;2.58;;;;;;;23.54;42.31;102103.78;5012278;28;20046;-86
2022/06/03 10:44:16;;;;;;;3.25;2.50;;;;;;;23.50;42.42;102099.78;5004207;28;20843;-85
2022/06/03 10:46:53;;;;;;;3.03;2.70;;;;;;;23.63;42.12;102120.53;5011480;28;20925;-85
2022/06/03 10:49:20;;;;;;;4.22;2.85;;;;;;;23.44;42.29;102088.00;5005793;28;20550;-86
2022/06/03 11:02:46;;;;;;;5.80;3.47;;;;;;;23.60;42.01;102118.22;5009161;28;20040;-84
2022/06/03 11:05:20;;;;;;;5.32;3.13;;;;;;;23.64;42.05;102108.88;4970230;28;20042;-86
2022/06/03 11:08:14;;;;;;;3.78;2.80;;;;;;;23.62;42.19;102106.41;4999187;28;20033;-85
2022/06/03 11:10:47;;;;;;;6.63;3.17;;;;;;;23.48;42.00;102073.38;5007113;28;20140;-86
2022/06/03 11:13:26;;;;;;;4.72;3.00;;;;;;;23.63;42.05;102088.63;5012670;28;20060;-86
2022/06/03 11:15:52;;;;;;;4.63;2.72;;;;;;;23.50;42.27;102075.84;5004554;28;20042;-86
2022/06/03 11:18:32;;;;;;;3.35;2.70;;;;;;;23.55;42.26;102075.34;5009058;28;20030;-86
2022/06/03 11:21:18;;;;;;;3.53;2.83;;;;;;;23.60;42.24;102081.00;4977685;28;20046;-85
2022/06/03 11:23:43;;;;;;;4.97;3.00;;;;;;;23.59;42.24;102074.03;5009854;28;20038;-86
2022/06/03 11:26:10;;;;;;;3.80;2.78;;;;;;;23.64;42.11;102072.50;5008003;28;20048;-86
2022/06/03 11:28:51;;;;;;;3.83;2.72;;;;;;;23.64;42.41;102075.16;5009195;28;20037;-86
2022/06/03 11:31:23;;;;;;;3.60;2.80;;;;;;;23.61;42.29;102064.88;5011396;28;20440;-87
2022/06/03 11:33:57;;;;;;;4.22;2.70;;;;;;;23.60;41.87;102059.72;5005519;28;20084;-86
2022/06/03 11:36:36;;;;;;;8.20;2.83;;;;;;;23.63;41.98;102059.38;4998649;28;20496;-86
2022/06/03 11:39:37;;;;;;;4.78;2.75;;;;;;;23.63;41.90;102054.88;5014065;28;20105;-85
2022/06/03 11:42:30;;;;;;;5.28;2.92;;;;;;;23.66;42.04;102056.34;5000286;28;20045;-85
2022/06/03 11:45:11;;;;;;;4.28;2.53;;;;;;;23.64;41.91;102051.22;5012057;28;20114;-85
2022/06/03 11:47:41;;;;;;;3.40;2.65;;;;;;;23.65;42.19;102044.06;5013904;28;20037;-86
2022/06/03 11:50:09;;;;;;;3.53;2.53;;;;;;;23.63;42.08;102054.06;5013622;28;20488;-85
2022/06/03 11:52:35;;;;;;;3.75;2.97;;;;;;;23.64;42.05;102061.84;5004805;28;20026;-85
2022/06/03 11:55:01;;;;;;;4.07;2.85;;;;;;;23.47;42.14;102020.38;5007621;28;21513;-86
2022/06/03 11:57:27;;;;;;;5.00;2.83;;;;;;;23.65;42.19;102049.38;5013240;28;20034;-86
2022/06/03 11:59:58;;;;;;;3.58;2.95;;;;;;;23.65;42.12;102049.38;5013046;28;20034;-87
2022/06/03 12:02:32;;;;;;;3.72;3.03;;;;;;;23.62;42.03;102045.25;5007736;28;20030;-86
2022/06/03 12:05:14;;;;;;;3.00;2.70;;;;;;;23.37;42.32;102012.63;5006807;28;20037;-85
2022/06/03 12:08:06;;;;;;;5.10;2.80;;;;;;;23.33;42.22;102011.31;5009093;28;20117;-86
2022/06/03 12:10:44;;;;;;;3.45;3.15;;;;;;;23.66;42.50;102064.34;5012950;28;20469;-86
2022/06/03 12:13:26;;;;;;;3.90;2.50;;;;;;;23.64;42.64;102061.84;5011170;28;20034;-85
2022/06/03 12:15:55;;;;;;;3.63;2.88;;;;;;;23.65;42.29;102068.81;5011796;28;20038;-85
2022/06/03 12:18:32;;;;;;;7.95;3.42;;;;;;;23.65;42.37;102065.34;5012101;28;20052;-86
2022/06/03 12:21:04;;;;;;;4.38;3.42;;;;;;;23.66;42.15;102059.84;5007440;28;20045;-85
2022/06/03 12:23:38;;;;;;;4.00;2.60;;;;;;;23.67;42.24;102053.53;4994289;28;20072;-86
2022/06/03 12:26:13;;;;;;;3.28;2.83;;;;;;;23.67;42.36;102058.00;5011282;28;20065;-86
2022/06/03 12:28:42;;;;;;;5.03;2.97;;;;;;;23.68;42.40;102055.16;5012754;28;20480;-85
2022/06/03 12:31:20;;;;;;;6.37;3.17;;;;;;;23.67;42.31;102050.84;5005969;28;20033;-85
2022/06/03 12:33:54;;;;;;;7.30;3.17;;;;;;;23.65;42.42;102049.38;5004713;28;20567;-85
2022/06/03 12:36:35;;;;;;;3.75;2.90;;;;;;;23.66;42.46;102037.75;5005195;28;20058;-84
2022/06/03 12:39:08;;;;;;;4.20;3.30;;;;;;;23.65;42.56;102049.38;5012279;28;20827;-85
2022/06/03 12:41:46;;;;;;;4.47;3.22;;;;;;;23.66;42.70;102045.72;4992544;28;20042;-86
2022/06/03 12:44:34;;;;;;;7.35;2.90;;;;;;;23.67;42.40;102040.22;5001522;28;20427;-83
2022/06/03 12:47:18;;;;;;;4.55;3.05;;;;;;;23.68;42.40;102054.34;4998894;28;20049;-83
2022/06/03 12:49:43;;;;;;;3.50;2.90;;;;;;;23.69;42.37;102051.50;4999455;28;20107;-85
2022/06/03 12:52:33;;;;;;;3.20;2.80;;;;;;;23.65;42.56;102047.53;4997773;28;20033;-86
2022/06/03 12:54:58;;;;;;;;;;;;;;;23.66;42.45;102051.03;5006123;28;20037;-86